createdAt,value
2023-01-26T12:26:26.111Z,63.00
2023-01-26T12:29:17.366Z,64.40
2023-01-26T12:32:08.909Z,64.70
2023-01-26T12:34:35.900Z,62.80
2023-01-26T12:37:21.035Z,63.50
2023-01-26T12:40:08.109Z,63.30
2023-01-26T12:42:46.204Z,63.50
2023-01-26T12:45:36.949Z,63.60
2023-01-26T12:48:48.195Z,63.70
2023-01-26T12:51:23.586Z,63.60
2023-01-26T12:54:00.528Z,63.50
2023-01-26T12:56:42.555Z,63.30
2023-01-26T12:59:47.773Z,62.90
2023-01-26T13:02:15.532Z,62.80
2023-01-26T13:04:48.841Z,63.60
2023-01-26T13:07:34.636Z,64.10
2023-01-26T13:10:19.502Z,64.80
2023-01-26T13:13:21.039Z,64.40
2023-01-26T13:16:07.989Z,64.00
2023-01-26T13:18:55.019Z,65.30
2023-01-26T13:21:39.898Z,64.70
2023-01-26T13:24:19.023Z,65.80
2023-01-26T13:26:47.939Z,65.50
2023-01-26T13:29:33.067Z,64.70
2023-01-26T13:32:10.586Z,64.80
2023-01-26T13:34:47.520Z,64.30
2023-01-26T13:37:36.576Z,64.60
2023-01-26T13:40:19.176Z,64.20
2023-01-26T13:43:17.478Z,64.00
2023-01-26T13:46:03.909Z,64.80
2023-01-26T13:48:50.685Z,64.30
2023-01-26T13:51:24.613Z,63.90
2023-01-26T13:54:12.096Z,64.20
2023-01-26T13:56:40.881Z,64.50
2023-01-26T13:59:17.470Z,63.50
2023-01-26T14:01:50.491Z,63.60
2023-01-26T14:04:22.894Z,63.90
2023-01-26T14:07:13.489Z,63.90
2023-01-26T14:09:49.429Z,64.60
2023-01-26T14:12:25.180Z,64.50
2023-01-26T14:14:56.016Z,64.20
2023-01-26T14:17:37.514Z,64.00
2023-01-26T14:20:24.614Z,64.50
2023-01-26T14:23:14.077Z,64.40
2023-01-26T14:25:45.161Z,64.00
2023-01-26T14:28:16.409Z,64.20
2023-01-26T14:30:43.889Z,64.60
2023-01-26T14:33:15.652Z,64.50
2023-01-26T14:35:47.712Z,64.90
2023-01-26T14:38:17.870Z,65.50
2023-01-26T14:40:56.841Z,70.30
2023-01-26T14:43:24.411Z,71.00
2023-01-26T14:45:51.136Z,68.00
2023-01-26T14:48:21.962Z,73.70
2023-01-26T14:50:51.308Z,74.40
2023-01-26T14:53:22.020Z,66.30
2023-01-26T14:55:50.369Z,66.10
2023-01-26T14:58:27.592Z,66.60
2023-01-26T15:00:56.072Z,66.70
2023-01-26T15:03:29.800Z,66.70
2023-01-26T15:06:20.599Z,66.60
2023-01-26T15:09:02.412Z,66.90
2023-01-26T15:11:59.083Z,70.70
2023-01-26T15:14:48.178Z,73.50
2023-01-26T15:17:40.785Z,67.40
2023-01-26T15:20:22.880Z,67.00
2023-01-26T15:22:51.848Z,66.80
2023-01-26T15:25:21.561Z,67.20
2023-01-26T15:28:01.635Z,67.10
2023-01-26T15:30:36.074Z,67.50
2023-01-26T15:33:03.517Z,67.60
2023-01-26T15:35:32.579Z,67.50
2023-01-26T15:38:09.622Z,68.10
2023-01-26T15:40:36.811Z,67.40
2023-01-26T15:43:15.485Z,67.70
2023-01-26T15:45:54.108Z,67.70
2023-01-26T15:48:21.885Z,67.70
2023-01-26T15:50:48.868Z,67.80
2023-01-26T15:53:20.117Z,67.30
2023-01-26T15:55:53.020Z,67.70
2023-01-26T15:58:20.092Z,67.50
2023-01-26T16:00:47.631Z,67.40
2023-01-26T16:03:19.593Z,67.60
2023-01-26T16:05:50.243Z,68.00
2023-01-26T16:08:18.651Z,68.10
2023-01-26T16:10:46.638Z,68.00
2023-01-26T16:13:17.881Z,67.80
2023-01-26T16:15:46.438Z,66.80
2023-01-26T16:18:13.822Z,66.40
2023-01-26T16:20:43.027Z,66.50
2023-01-26T16:23:31.980Z,66.30
2023-01-26T16:25:58.730Z,66.00
2023-01-26T16:28:25.515Z,66.00
2023-01-26T16:30:52.353Z,66.00
2023-01-26T16:33:24.578Z,66.10
2023-01-26T16:35:51.712Z,66.30
2023-01-26T16:38:18.582Z,66.10
2023-01-26T16:40:48.264Z,67.20
2023-01-26T16:43:23.674Z,66.10
2023-01-26T16:45:51.224Z,66.10
2023-01-26T16:48:18.443Z,65.60
2023-01-26T16:50:46.477Z,65.80
2023-01-26T16:53:25.903Z,66.00
2023-01-26T16:55:53.047Z,65.70
2023-01-26T16:58:21.583Z,65.70
2023-01-26T17:00:48.939Z,66.10
2023-01-26T17:03:15.755Z,66.10
2023-01-26T17:05:43.271Z,65.20
2023-01-26T17:08:10.189Z,65.00
2023-01-26T17:10:38.121Z,64.80
2023-01-26T17:13:07.473Z,64.40
2023-01-26T17:15:34.296Z,64.70
2023-01-26T17:18:01.278Z,64.40
2023-01-26T17:20:28.137Z,64.20
2023-01-26T17:22:54.896Z,63.60
2023-01-26T17:25:21.924Z,64.80
2023-01-26T17:27:49.867Z,64.70
2023-01-26T17:30:19.695Z,64.40
2023-01-26T17:32:46.655Z,63.90
2023-01-26T17:35:14.166Z,63.90
2023-01-26T17:37:44.199Z,64.40
2023-01-26T17:40:12.659Z,64.90
2023-01-26T17:42:39.484Z,64.60
2023-01-26T17:45:07.782Z,65.80
2023-01-26T17:47:34.765Z,65.40
2023-01-26T17:50:01.960Z,66.20
2023-01-26T17:52:28.903Z,66.60
2023-01-26T17:54:55.789Z,66.10
2023-01-26T17:57:22.563Z,66.30
2023-01-26T17:59:49.402Z,70.30
2023-01-26T18:02:16.860Z,72.00
2023-01-26T18:04:44.501Z,70.70
2023-01-26T18:07:11.285Z,76.40
2023-01-26T18:09:38.051Z,72.80
2023-01-26T18:12:05.197Z,73.10
2023-01-26T18:14:32.030Z,72.90
2023-01-26T18:16:58.988Z,83.20
2023-01-26T18:19:25.879Z,73.80
2023-01-26T18:21:52.748Z,78.20
2023-01-26T18:24:19.567Z,79.10
2023-01-26T18:26:46.449Z,67.00
2023-01-26T18:29:14.790Z,63.70
2023-01-26T18:31:41.682Z,69.60
2023-01-26T18:34:12.110Z,64.90
2023-01-26T18:36:39.034Z,65.10
2023-01-26T18:39:08.798Z,64.70
2023-01-26T18:41:35.633Z,64.80
2023-01-26T18:44:03.767Z,65.60
2023-01-26T18:46:31.246Z,65.90
2023-01-26T18:49:03.018Z,65.80
2023-01-26T18:51:36.709Z,66.20
2023-01-26T18:54:04.829Z,66.70
2023-01-26T18:56:31.905Z,66.40
2023-01-26T18:58:59.598Z,66.60
2023-01-26T19:01:26.863Z,66.80
2023-01-26T19:03:55.615Z,67.00
2023-01-26T19:06:24.492Z,67.00
2023-01-26T19:09:02.901Z,67.00
2023-01-26T19:11:35.917Z,67.00
2023-01-26T19:14:04.451Z,66.90
2023-01-26T19:16:34.158Z,67.40
2023-01-26T19:19:01.040Z,67.00
2023-01-26T19:21:29.087Z,67.20
2023-01-26T19:23:58.940Z,67.00
2023-01-26T19:26:30.746Z,67.50
2023-01-26T19:28:58.862Z,67.00
2023-01-26T19:31:26.935Z,66.70
2023-01-26T19:34:02.546Z,67.40
2023-01-26T19:36:32.400Z,67.50
2023-01-26T19:39:00.386Z,67.90
2023-01-26T19:41:27.685Z,66.60
2023-01-26T19:43:54.531Z,67.50
2023-01-26T19:46:21.666Z,67.90
2023-01-26T19:48:48.968Z,69.20
2023-01-26T19:51:22.784Z,69.40
2023-01-26T19:53:52.035Z,69.80
2023-01-26T19:56:22.057Z,70.00
2023-01-26T19:58:56.849Z,69.20
2023-01-26T20:01:25.443Z,68.60
2023-01-26T20:03:54.784Z,67.60
2023-01-26T20:06:23.772Z,67.70
2023-01-26T20:08:51.269Z,68.50
2023-01-26T20:11:19.781Z,70.10
2023-01-26T20:13:46.559Z,70.90
2023-01-26T20:16:13.886Z,71.50
2023-01-26T20:18:40.707Z,70.80
2023-01-26T20:21:07.614Z,70.30
2023-01-26T20:23:35.606Z,70.30
2023-01-26T20:26:04.742Z,69.70
2023-01-26T20:28:31.730Z,70.90
2023-01-26T20:31:11.075Z,72.20
2023-01-26T20:33:41.020Z,71.60
2023-01-26T20:36:10.714Z,72.10
2023-01-26T20:38:38.577Z,71.70
2023-01-26T20:41:10.401Z,70.90
2023-01-26T20:43:41.505Z,69.80
2023-01-26T20:46:11.063Z,68.40
2023-01-26T20:48:38.721Z,67.70
2023-01-26T20:51:23.706Z,67.90
2023-01-26T20:53:51.464Z,68.00
2023-01-26T20:56:21.232Z,67.60
2023-01-26T20:58:51.077Z,68.00
2023-01-26T21:01:18.311Z,67.80
2023-01-26T21:03:45.980Z,68.10
2023-01-26T21:06:14.795Z,68.10
2023-01-26T21:08:42.112Z,68.60
2023-01-26T21:11:14.237Z,67.80
2023-01-26T21:13:42.286Z,68.00
2023-01-26T21:16:11.887Z,68.40
2023-01-26T21:18:41.628Z,68.70
2023-01-26T21:21:11.829Z,69.30
2023-01-26T21:23:38.872Z,68.90
2023-01-26T21:26:12.202Z,82.60
2023-01-26T21:28:39.037Z,84.50
2023-01-26T21:31:14.002Z,79.20
2023-01-26T21:33:45.967Z,69.20
2023-01-26T21:36:15.636Z,68.80
2023-01-26T21:38:44.874Z,71.00
2023-01-26T21:41:32.842Z,70.60
2023-01-26T21:44:01.776Z,70.60
2023-01-26T21:46:29.406Z,70.70
2023-01-26T21:48:56.715Z,71.20
2023-01-26T21:51:42.740Z,71.00
2023-01-26T21:54:09.860Z,70.10
2023-01-26T21:56:36.702Z,68.40
2023-01-26T21:59:07.600Z,68.70
2023-01-26T22:01:37.657Z,66.50
2023-01-26T22:04:10.193Z,66.60
2023-01-26T22:06:37.765Z,66.70
2023-01-26T22:09:06.080Z,65.90
2023-01-26T22:11:33.672Z,64.50
2023-01-26T22:14:00.758Z,64.20
2023-01-26T22:16:28.203Z,64.10
2023-01-26T22:18:55.181Z,63.60
2023-01-26T22:21:22.058Z,63.60
2023-01-26T22:23:48.937Z,63.60
2023-01-26T22:26:19.524Z,63.70
2023-01-26T22:28:54.245Z,63.90
2023-01-26T22:31:26.147Z,63.90
2023-01-26T22:33:54.595Z,63.70
2023-01-26T22:36:22.333Z,63.90
2023-01-26T22:38:49.604Z,63.70
2023-01-26T22:41:25.216Z,63.70
2023-01-26T22:43:56.878Z,63.80
2023-01-26T22:46:25.317Z,63.90
2023-01-26T22:48:52.329Z,63.30
2023-01-26T22:51:22.741Z,63.50
2023-01-26T22:53:52.074Z,63.60
2023-01-26T22:56:19.714Z,63.60
2023-01-26T22:58:58.375Z,63.70
2023-01-26T23:01:31.316Z,63.70
2023-01-26T23:03:59.209Z,64.00
2023-01-26T23:06:26.655Z,64.40
2023-01-26T23:08:54.061Z,64.70
2023-01-26T23:11:26.340Z,65.20
2023-01-26T23:13:54.960Z,64.90
2023-01-26T23:16:23.586Z,65.20
2023-01-26T23:18:52.040Z,64.90
2023-01-26T23:21:19.178Z,64.80
2023-01-26T23:23:46.024Z,64.50
2023-01-26T23:26:12.869Z,65.10
2023-01-26T23:28:42.587Z,64.80
2023-01-26T23:31:13.945Z,65.30
2023-01-26T23:33:41.205Z,65.10
2023-01-26T23:36:09.921Z,65.00
2023-01-26T23:38:36.814Z,63.90
2023-01-26T23:41:05.432Z,65.40
2023-01-26T23:43:32.361Z,64.50
2023-01-26T23:45:59.317Z,64.20
2023-01-26T23:48:26.747Z,63.70
2023-01-26T23:51:01.619Z,63.50
2023-01-26T23:53:32.149Z,63.30
2023-01-26T23:56:00.675Z,63.40
2023-01-26T23:58:27.501Z,63.70
